Airfield :
LOGIN :

Register | Disclaimer

   EN    FR    IT 

 










Legend :    VFR   Marginal VFR   IFR   Intensive IFR   Very Intensive IFR
Visi :
Ceiling :
>= 8 km
>= 3000ft
5 to 8 km
1000 to 3000 ft
1500m to 5 km
500 to 1000 ft
800 to 1500m
200 to 500 ft
< 800m
< 200 ft
Symbols :   Thunderstorms  Fog  Heavy snow  Heavy precipitations  Wind > 20 kt
SIGMETs :     Misc.  Thunderstorms  Icing  Turbulence  Mountain Waves  Volcanic Ashes







- Airport Elevation : 137 ft
- IATA code : THN


ESGT - Trollhattan-Vanersborg

CURRENT METAR :
  • 211920Z 05008KT 9999 BKN024 02/M01 Q1033

EXPIRED METARs :
  • 211850Z 04007KT 9999 BKN023 02/M01 Q1033
  • 211820Z 04007KT 020V080 9999 OVC023 02/M01 Q1033
  • 211750Z 05007KT 9999 OVC024 02/M01 Q1033 REDZ
  • 211720Z 05007KT 9999 BKN021 02/M01 Q1033
  • 211650Z 06009KT 9999 -DZ FEW009 BKN022 02/M01 Q1033

TAF TAF ESGT
Valid from the 21 at 18:00 until the 21 at 22:00 UTC


211730Z 2118/2122 05009KT 9999 BKN020
No reported NOTAMs for that airfield.



MET'MAP, your aeronautical weather chart ! - Copyright ORBIFLY December 2007 - Disclaimer

ORBIFLY MET'MAP TEAM :

Programming & Development : Alexandra Zaïnal
Concept & Development : Baudouin d'Aumeries
Co-Development & Prog : Marc-Olivier Méhu
Technical & hardware support : Manuel Goepfert

Contact : metmap@orbifly.com




SOURCES & CREDITS :

   NOAA